sensor_id;sensor_type;location;lat;lon;timestamp;pressure;altitude;pressure_sealevel;temperature;humidity
68179;BME280;54998;42.656;23.382;2023-02-15T00:01:38;96063.28;;;0.14;70.87
68179;BME280;54998;42.656;23.382;2023-02-15T00:04:05;96049.19;;;0.09;70.84
68179;BME280;54998;42.656;23.382;2023-02-15T00:06:31;96062.81;;;0.03;70.96
68179;BME280;54998;42.656;23.382;2023-02-15T00:08:57;96055.13;;;0.06;71.22
68179;BME280;54998;42.656;23.382;2023-02-15T00:11:23;96059.69;;;-0.05;71.38
68179;BME280;54998;42.656;23.382;2023-02-15T00:14:15;96069.63;;;-0.01;71.90
68179;BME280;54998;42.656;23.382;2023-02-15T00:16:42;96072.25;;;-0.04;71.64
68179;BME280;54998;42.656;23.382;2023-02-15T00:19:09;96053.63;;;0.01;71.63
68179;BME280;54998;42.656;23.382;2023-02-15T00:21:36;96062.44;;;-0.13;72.40
68179;BME280;54998;42.656;23.382;2023-02-15T00:24:03;96064.75;;;-0.07;72.15
68179;BME280;54998;42.656;23.382;2023-02-15T00:26:29;96076.38;;;-0.01;72.06
68179;BME280;54998;42.656;23.382;2023-02-15T00:28:55;96069.91;;;-0.10;72.44
68179;BME280;54998;42.656;23.382;2023-02-15T00:31:21;96076.81;;;-0.15;72.43
68179;BME280;54998;42.656;23.382;2023-02-15T00:33:47;96083.91;;;0.01;71.94
68179;BME280;54998;42.656;23.382;2023-02-15T00:36:13;96073.34;;;-0.12;72.14
68179;BME280;54998;42.656;23.382;2023-02-15T00:38:39;96065.44;;;0.00;71.75
68179;BME280;54998;42.656;23.382;2023-02-15T00:41:06;96071.56;;;-0.09;72.24
68179;BME280;54998;42.656;23.382;2023-02-15T00:43:33;96071.44;;;-0.04;71.98
68179;BME280;54998;42.656;23.382;2023-02-15T00:45:59;96083.44;;;-0.12;72.20
68179;BME280;54998;42.656;23.382;2023-02-15T00:48:25;96083.63;;;-0.18;72.59
68179;BME280;54998;42.656;23.382;2023-02-15T00:50:52;96072.28;;;-0.05;72.28
68179;BME280;54998;42.656;23.382;2023-02-15T00:53:18;96084.09;;;-0.06;72.46
68179;BME280;54998;42.656;23.382;2023-02-15T00:55:44;96073.22;;;-0.08;72.50
68179;BME280;54998;42.656;23.382;2023-02-15T00:58:10;96063.28;;;-0.12;72.52
68179;BME280;54998;42.656;23.382;2023-02-15T01:00:37;96073.06;;;-0.03;72.13
68179;BME280;54998;42.656;23.382;2023-02-15T01:03:02;96072.72;;;-0.19;72.37
68179;BME280;54998;42.656;23.382;2023-02-15T01:05:29;96060.75;;;-0.12;72.08
68179;BME280;54998;42.656;23.382;2023-02-15T01:07:55;96066.84;;;-0.19;72.50
68179;BME280;54998;42.656;23.382;2023-02-15T01:10:21;96063.13;;;-0.08;72.20
68179;BME280;54998;42.656;23.382;2023-02-15T01:12:46;96070.66;;;-0.06;71.95
68179;BME280;54998;42.656;23.382;2023-02-15T01:15:12;96070.03;;;-0.13;72.10
68179;BME280;54998;42.656;23.382;2023-02-15T01:17:37;96062.31;;;-0.08;72.37
68179;BME280;54998;42.656;23.382;2023-02-15T01:20:03;96054.66;;;-0.07;72.14
68179;BME280;54998;42.656;23.382;2023-02-15T01:22:29;96052.47;;;-0.17;72.46
68179;BME280;54998;42.656;23.382;2023-02-15T01:24:54;96056.69;;;-0.18;72.22
68179;BME280;54998;42.656;23.382;2023-02-15T01:27:20;96058.75;;;-0.31;72.73
68179;BME280;54998;42.656;23.382;2023-02-15T01:29:45;96053.34;;;-0.18;72.83
68179;BME280;54998;42.656;23.382;2023-02-15T01:32:12;96061.06;;;-0.23;72.68
68179;BME280;54998;42.656;23.382;2023-02-15T01:34:37;96049.19;;;-0.19;72.76
68179;BME280;54998;42.656;23.382;2023-02-15T01:37:03;96045.88;;;-0.22;72.85
68179;BME280;54998;42.656;23.382;2023-02-15T01:39:28;96043.38;;;-0.22;73.05
68179;BME280;54998;42.656;23.382;2023-02-15T01:41:53;96047.19;;;-0.10;72.95
68179;BME280;54998;42.656;23.382;2023-02-15T01:47:23;96047.41;;;-0.17;73.32
68179;BME280;54998;42.656;23.382;2023-02-15T01:50:06;96039.97;;;-0.21;72.91
68179;BME280;54998;42.656;23.382;2023-02-15T01:52:35;96032.41;;;-0.22;73.44
68179;BME280;54998;42.656;23.382;2023-02-15T01:55:02;96046.00;;;-0.26;73.14
68179;BME280;54998;42.656;23.382;2023-02-15T01:57:29;96022.28;;;-0.21;73.05
68179;BME280;54998;42.656;23.382;2023-02-15T01:59:57;96035.16;;;-0.28;73.61
68179;BME280;54998;42.656;23.382;2023-02-15T02:02:25;96029.41;;;-0.33;73.55
68179;BME280;54998;42.656;23.382;2023-02-15T02:04:54;96034.13;;;-0.23;73.52
68179;BME280;54998;42.656;23.382;2023-02-15T02:07:24;96037.59;;;-0.27;73.66
68179;BME280;54998;42.656;23.382;2023-02-15T02:09:52;96034.06;;;-0.19;73.57
68179;BME280;54998;42.656;23.382;2023-02-15T02:12:18;96037.56;;;-0.25;73.48
68179;BME280;54998;42.656;23.382;2023-02-15T02:14:45;96037.88;;;-0.36;73.95
68179;BME280;54998;42.656;23.382;2023-02-15T02:28:59;96057.38;;;-0.41;74.19
68179;BME280;54998;42.656;23.382;2023-02-15T02:38:55;96053.66;;;-0.29;74.32
68179;BME280;54998;42.656;23.382;2023-02-15T02:44:02;96054.31;;;-0.23;73.77
68179;BME280;54998;42.656;23.382;2023-02-15T02:46:55;96045.25;;;-0.28;74.18
68179;BME280;54998;42.656;23.382;2023-02-15T02:49:34;96051.66;;;-0.18;73.98
68179;BME280;54998;42.656;23.382;2023-02-15T02:52:02;96050.03;;;-0.21;73.79
68179;BME280;54998;42.656;23.382;2023-02-15T02:54:29;96050.09;;;-0.22;74.18
68179;BME280;54998;42.656;23.382;2023-02-15T02:56:56;96046.66;;;-0.19;73.79
68179;BME280;54998;42.656;23.382;2023-02-15T02:59:29;96054.41;;;-0.26;74.45
68179;BME280;54998;42.656;23.382;2023-02-15T03:02:21;96067.59;;;-0.17;73.63
68179;BME280;54998;42.656;23.382;2023-02-15T03:04:53;96064.72;;;-0.05;73.49
68179;BME280;54998;42.656;23.382;2023-02-15T03:07:24;96061.47;;;-0.09;73.62
68179;BME280;54998;42.656;23.382;2023-02-15T03:09:54;96066.41;;;-0.04;73.34
68179;BME280;54998;42.656;23.382;2023-02-15T03:12:24;96074.00;;;-0.06;73.29
68179;BME280;54998;42.656;23.382;2023-02-15T03:15:15;96076.25;;;0.04;72.91
68179;BME280;54998;42.656;23.382;2023-02-15T03:17:45;96075.47;;;0.02;73.19
68179;BME280;54998;42.656;23.382;2023-02-15T03:20:21;96072.91;;;0.03;72.97
68179;BME280;54998;42.656;23.382;2023-02-15T03:22:58;96078.47;;;0.13;73.04
68179;BME280;54998;42.656;23.382;2023-02-15T03:25:30;96077.06;;;0.04;73.05
68179;BME280;54998;42.656;23.382;2023-02-15T03:28:03;96076.72;;;0.15;72.89
68179;BME280;54998;42.656;23.382;2023-02-15T03:30:32;96076.59;;;0.19;72.80
68179;BME280;54998;42.656;23.382;2023-02-15T03:33:00;96077.69;;;0.11;72.83
68179;BME280;54998;42.656;23.382;2023-02-15T03:35:36;96071.47;;;0.23;72.83
68179;BME280;54998;42.656;23.382;2023-02-15T03:38:06;96065.03;;;0.12;73.12
68179;BME280;54998;42.656;23.382;2023-02-15T03:40:38;96064.97;;;0.15;72.83
68179;BME280;54998;42.656;23.382;2023-02-15T03:43:54;96068.13;;;0.22;72.73
68179;BME280;54998;42.656;23.382;2023-02-15T03:46:47;96053.00;;;0.20;73.21
68179;BME280;54998;42.656;23.382;2023-02-15T03:51:46;96074.03;;;0.21;72.86
68179;BME280;54998;42.656;23.382;2023-02-15T03:54:16;96070.78;;;0.17;73.13
68179;BME280;54998;42.656;23.382;2023-02-15T03:57:04;96072.06;;;0.31;72.90
68179;BME280;54998;42.656;23.382;2023-02-15T03:59:48;96075.53;;;0.27;72.98
68179;BME280;54998;42.656;23.382;2023-02-15T04:02:44;96072.22;;;0.26;72.84
68179;BME280;54998;42.656;23.382;2023-02-15T04:05:12;96069.22;;;0.40;72.22
68179;BME280;54998;42.656;23.382;2023-02-15T04:07:38;96071.09;;;0.35;72.03
68179;BME280;54998;42.656;23.382;2023-02-15T04:10:04;96078.56;;;0.38;72.14
68179;BME280;54998;42.656;23.382;2023-02-15T04:12:48;96096.34;;;0.35;72.59
68179;BME280;54998;42.656;23.382;2023-02-15T04:15:13;96095.28;;;0.42;72.20
68179;BME280;54998;42.656;23.382;2023-02-15T04:17:57;96095.84;;;0.50;71.86
68179;BME280;54998;42.656;23.382;2023-02-15T04:20:23;96086.75;;;0.45;72.09
68179;BME280;54998;42.656;23.382;2023-02-15T04:23:07;96101.00;;;0.47;71.84
68179;BME280;54998;42.656;23.382;2023-02-15T04:25:51;96099.53;;;0.40;72.11
68179;BME280;54998;42.656;23.382;2023-02-15T04:28:16;96101.09;;;0.44;72.09
68179;BME280;54998;42.656;23.382;2023-02-15T04:30:42;96116.16;;;0.47;71.88
68179;BME280;54998;42.656;23.382;2023-02-15T04:33:07;96114.50;;;0.46;72.24
68179;BME280;54998;42.656;23.382;2023-02-15T04:35:33;96124.34;;;0.54;71.89
68179;BME280;54998;42.656;23.382;2023-02-15T04:37:58;96117.81;;;0.48;72.16
68179;BME280;54998;42.656;23.382;2023-02-15T04:40:24;96119.25;;;0.55;71.86
68179;BME280;54998;42.656;23.382;2023-02-15T04:42:49;96114.06;;;0.60;71.92
68179;BME280;54998;42.656;23.382;2023-02-15T04:45:15;96125.72;;;0.64;71.73
68179;BME280;54998;42.656;23.382;2023-02-15T04:47:41;96125.94;;;0.56;71.98
68179;BME280;54998;42.656;23.382;2023-02-15T04:50:06;96117.22;;;0.67;71.67
68179;BME280;54998;42.656;23.382;2023-02-15T04:52:32;96114.88;;;0.60;71.62
68179;BME280;54998;42.656;23.382;2023-02-15T04:54:57;96118.28;;;0.59;72.06
68179;BME280;54998;42.656;23.382;2023-02-15T04:57:23;96125.88;;;0.59;71.65
68179;BME280;54998;42.656;23.382;2023-02-15T04:59:48;96133.41;;;0.61;72.11
68179;BME280;54998;42.656;23.382;2023-02-15T05:02:14;96130.81;;;0.63;71.82
68179;BME280;54998;42.656;23.382;2023-02-15T05:04:39;96131.16;;;0.52;72.58
68179;BME280;54998;42.656;23.382;2023-02-15T05:07:05;96134.31;;;0.58;72.28
68179;BME280;54998;42.656;23.382;2023-02-15T05:09:30;96134.81;;;0.70;71.89
68179;BME280;54998;42.656;23.382;2023-02-15T05:11:56;96137.97;;;0.76;71.80
68179;BME280;54998;42.656;23.382;2023-02-15T05:14:21;96132.47;;;0.64;71.62
68179;BME280;54998;42.656;23.382;2023-02-15T05:16:46;96144.06;;;0.69;71.85
68179;BME280;54998;42.656;23.382;2023-02-15T05:19:12;96138.25;;;0.67;71.50
68179;BME280;54998;42.656;23.382;2023-02-15T05:21:37;96139.09;;;0.68;71.49
68179;BME280;54998;42.656;23.382;2023-02-15T05:24:03;96146.72;;;0.66;72.00
68179;BME280;54998;42.656;23.382;2023-02-15T05:26:48;96152.28;;;0.76;71.70
68179;BME280;54998;42.656;23.382;2023-02-15T05:29:32;96159.19;;;0.71;71.79
68179;BME280;54998;42.656;23.382;2023-02-15T05:31:58;96155.59;;;0.78;71.63
68179;BME280;54998;42.656;23.382;2023-02-15T05:34:23;96156.44;;;0.78;71.51
68179;BME280;54998;42.656;23.382;2023-02-15T05:36:48;96154.06;;;0.74;71.55
68179;BME280;54998;42.656;23.382;2023-02-15T05:39:14;96147.31;;;0.74;71.80
68179;BME280;54998;42.656;23.382;2023-02-15T05:41:39;96154.06;;;0.74;71.50
68179;BME280;54998;42.656;23.382;2023-02-15T05:44:05;96163.25;;;0.76;71.41
68179;BME280;54998;42.656;23.382;2023-02-15T05:46:35;96156.53;;;0.75;71.66
68179;BME280;54998;42.656;23.382;2023-02-15T05:49:00;96158.81;;;0.83;71.05
68179;BME280;54998;42.656;23.382;2023-02-15T05:51:26;96159.00;;;0.77;71.20
68179;BME280;54998;42.656;23.382;2023-02-15T05:53:51;96166.22;;;0.89;71.09
68179;BME280;54998;42.656;23.382;2023-02-15T05:56:17;96165.50;;;0.84;71.03
68179;BME280;54998;42.656;23.382;2023-02-15T05:58:42;96178.00;;;0.89;71.17
68179;BME280;54998;42.656;23.382;2023-02-15T06:01:12;96159.69;;;0.82;71.15
68179;BME280;54998;42.656;23.382;2023-02-15T06:03:38;96160.28;;;0.90;71.09
68179;BME280;54998;42.656;23.382;2023-02-15T06:06:04;96176.88;;;0.97;70.49
68179;BME280;54998;42.656;23.382;2023-02-15T06:08:30;96175.25;;;0.96;70.32
68179;BME280;54998;42.656;23.382;2023-02-15T06:10:56;96165.94;;;0.97;70.77
68179;BME280;54998;42.656;23.382;2023-02-15T06:13:22;96164.19;;;0.99;70.25
68179;BME280;54998;42.656;23.382;2023-02-15T06:15:47;96166.88;;;0.94;70.04
68179;BME280;54998;42.656;23.382;2023-02-15T06:18:13;96164.47;;;0.91;70.33
68179;BME280;54998;42.656;23.382;2023-02-15T06:20:38;96156.38;;;1.07;69.72
68179;BME280;54998;42.656;23.382;2023-02-15T06:23:03;96163.50;;;1.20;69.16
68179;BME280;54998;42.656;23.382;2023-02-15T06:25:29;96162.72;;;1.18;69.37
68179;BME280;54998;42.656;23.382;2023-02-15T06:27:54;96173.28;;;1.30;69.00
68179;BME280;54998;42.656;23.382;2023-02-15T06:30:20;96176.75;;;1.52;68.38
68179;BME280;54998;42.656;23.382;2023-02-15T06:32:45;96170.00;;;1.53;67.96
68179;BME280;54998;42.656;23.382;2023-02-15T06:35:11;96179.59;;;1.43;68.25
68179;BME280;54998;42.656;23.382;2023-02-15T06:37:36;96178.72;;;1.44;68.44
68179;BME280;54998;42.656;23.382;2023-02-15T06:40:02;96167.09;;;1.63;67.78
68179;BME280;54998;42.656;23.382;2023-02-15T06:42:29;96169.41;;;1.70;67.24
68179;BME280;54998;42.656;23.382;2023-02-15T06:44:54;96175.22;;;1.48;67.78
68179;BME280;54998;42.656;23.382;2023-02-15T06:47:20;96177.81;;;1.70;67.51
68179;BME280;54998;42.656;23.382;2023-02-15T06:49:45;96170.06;;;1.75;67.58
68179;BME280;54998;42.656;23.382;2023-02-15T06:52:10;96178.16;;;2.08;66.70
68179;BME280;54998;42.656;23.382;2023-02-15T06:54:36;96168.16;;;2.27;65.35
68179;BME280;54998;42.656;23.382;2023-02-15T06:57:01;96157.53;;;1.95;65.63
68179;BME280;54998;42.656;23.382;2023-02-15T06:59:27;96159.44;;;2.12;65.36
68179;BME280;54998;42.656;23.382;2023-02-15T07:01:52;96171.97;;;2.39;65.00
68179;BME280;54998;42.656;23.382;2023-02-15T07:04:18;96168.72;;;2.57;64.06
68179;BME280;54998;42.656;23.382;2023-02-15T07:06:43;96158.63;;;2.78;62.94
68179;BME280;54998;42.656;23.382;2023-02-15T07:09:08;96165.47;;;2.32;64.02
68179;BME280;54998;42.656;23.382;2023-02-15T07:11:34;96163.47;;;2.62;63.76
68179;BME280;54998;42.656;23.382;2023-02-15T07:14:18;96169.31;;;3.06;61.99
68179;BME280;54998;42.656;23.382;2023-02-15T07:16:44;96171.34;;;2.98;62.29
68179;BME280;54998;42.656;23.382;2023-02-15T07:19:09;96178.38;;;3.12;61.93
68179;BME280;54998;42.656;23.382;2023-02-15T07:21:35;96178.56;;;2.65;62.79
68179;BME280;54998;42.656;23.382;2023-02-15T07:24:01;96184.00;;;2.78;62.62
68179;BME280;54998;42.656;23.382;2023-02-15T07:26:27;96181.03;;;3.29;61.57
68179;BME280;54998;42.656;23.382;2023-02-15T07:28:52;96169.28;;;3.68;59.88
68179;BME280;54998;42.656;23.382;2023-02-15T07:31:18;96176.88;;;4.26;58.30
68179;BME280;54998;42.656;23.382;2023-02-15T07:33:43;96174.63;;;5.63;55.17
68179;BME280;54998;42.656;23.382;2023-02-15T07:36:09;96165.78;;;6.83;50.68
68179;BME280;54998;42.656;23.382;2023-02-15T07:38:38;96160.53;;;6.22;51.54
68179;BME280;54998;42.656;23.382;2023-02-15T07:41:07;96153.91;;;6.35;52.44
68179;BME280;54998;42.656;23.382;2023-02-15T07:43:36;96149.41;;;8.05;47.77
68179;BME280;54998;42.656;23.382;2023-02-15T07:46:08;96153.78;;;7.88;46.28
68179;BME280;54998;42.656;23.382;2023-02-15T07:48:35;96155.03;;;7.52;47.58
68179;BME280;54998;42.656;23.382;2023-02-15T07:51:03;96159.69;;;8.46;46.13
68179;BME280;54998;42.656;23.382;2023-02-15T07:53:29;96152.03;;;8.03;45.99
68179;BME280;54998;42.656;23.382;2023-02-15T07:56:01;96151.38;;;8.70;44.23
68179;BME280;54998;42.656;23.382;2023-02-15T07:58:27;96155.41;;;7.60;46.09
68179;BME280;54998;42.656;23.382;2023-02-15T08:01:12;96151.50;;;8.54;44.61
68179;BME280;54998;42.656;23.382;2023-02-15T08:03:37;96157.50;;;9.85;42.04
68179;BME280;54998;42.656;23.382;2023-02-15T08:06:03;96160.25;;;10.58;40.24
68179;BME280;54998;42.656;23.382;2023-02-15T08:08:28;96166.84;;;9.74;41.74
68179;BME280;54998;42.656;23.382;2023-02-15T08:13:43;96169.34;;;5.83;50.87
68179;BME280;54998;42.656;23.382;2023-02-15T08:16:24;96163.84;;;4.70;54.00
68179;BME280;54998;42.656;23.382;2023-02-15T08:18:52;96172.41;;;4.87;55.11
68179;BME280;54998;42.656;23.382;2023-02-15T08:21:18;96167.28;;;4.69;54.97
68179;BME280;54998;42.656;23.382;2023-02-15T08:23:44;96162.75;;;4.02;56.06
68179;BME280;54998;42.656;23.382;2023-02-15T08:26:09;96165.19;;;4.60;55.11
68179;BME280;54998;42.656;23.382;2023-02-15T08:28:35;96158.81;;;4.32;56.00
68179;BME280;54998;42.656;23.382;2023-02-15T08:31:08;96177.44;;;4.52;54.92
68179;BME280;54998;42.656;23.382;2023-02-15T09:11:34;96176.63;;;5.40;51.77
68179;BME280;54998;42.656;23.382;2023-02-15T09:14:02;96177.50;;;5.56;51.09
68179;BME280;54998;42.656;23.382;2023-02-15T09:16:29;96172.47;;;5.55;51.43
68179;BME280;54998;42.656;23.382;2023-02-15T09:18:56;96171.28;;;5.95;49.52
68179;BME280;54998;42.656;23.382;2023-02-15T09:21:26;96169.78;;;6.41;48.64
68179;BME280;54998;42.656;23.382;2023-02-15T09:23:57;96173.78;;;6.92;47.06
68179;BME280;54998;42.656;23.382;2023-02-15T09:26:24;96179.50;;;6.96;46.10
68179;BME280;54998;42.656;23.382;2023-02-15T09:28:54;96164.56;;;5.94;47.87
68179;BME280;54998;42.656;23.382;2023-02-15T09:31:32;96172.75;;;7.55;45.78
68179;BME280;54998;42.656;23.382;2023-02-15T09:33:59;96181.78;;;9.80;40.21
68179;BME280;54998;42.656;23.382;2023-02-15T09:36:36;96186.44;;;8.26;43.26
68179;BME280;54998;42.656;23.382;2023-02-15T09:47:28;96170.25;;;5.82;49.39
68179;BME280;54998;42.656;23.382;2023-02-15T09:50:16;96165.41;;;5.93;49.46
68179;BME280;54998;42.656;23.382;2023-02-15T09:56:10;96166.56;;;6.37;47.96
68179;BME280;54998;42.656;23.382;2023-02-15T09:58:54;96165.66;;;6.22;48.06
68179;BME280;54998;42.656;23.382;2023-02-15T10:01:54;96156.97;;;6.42;47.37
68179;BME280;54998;42.656;23.382;2023-02-15T10:07:13;96165.38;;;5.44;50.62
68179;BME280;54998;42.656;23.382;2023-02-15T10:23:13;96150.78;;;6.30;48.26
68179;BME280;54998;42.656;23.382;2023-02-15T10:26:19;96140.84;;;5.92;49.38
68179;BME280;54998;42.656;23.382;2023-02-15T10:28:46;96143.47;;;5.75;49.83
68179;BME280;54998;42.656;23.382;2023-02-15T10:31:26;96145.69;;;7.23;46.18
68179;BME280;54998;42.656;23.382;2023-02-15T10:42:42;96115.50;;;8.57;43.42
68179;BME280;54998;42.656;23.382;2023-02-15T10:50:54;96115.47;;;11.21;37.05
68179;BME280;54998;42.656;23.382;2023-02-15T11:07:08;96110.66;;;11.17;36.87
68179;BME280;54998;42.656;23.382;2023-02-15T11:09:43;96106.78;;;10.52;36.84
68179;BME280;54998;42.656;23.382;2023-02-15T11:12:20;96101.09;;;8.69;41.80
68179;BME280;54998;42.656;23.382;2023-02-15T11:15:48;96097.50;;;10.38;38.31
68179;BME280;54998;42.656;23.382;2023-02-15T11:17:52;96109.91;;;9.04;39.98
68179;BME280;54998;42.656;23.382;2023-02-15T11:23:28;96084.50;;;9.01;40.26
68179;BME280;54998;42.656;23.382;2023-02-15T11:25:59;96103.81;;;9.45;40.48
68179;BME280;54998;42.656;23.382;2023-02-15T11:28:34;96100.09;;;9.11;40.32
68179;BME280;54998;42.656;23.382;2023-02-15T11:31:13;96095.03;;;8.57;41.87
68179;BME280;54998;42.656;23.382;2023-02-15T11:33:45;96074.41;;;9.88;39.80
68179;BME280;54998;42.656;23.382;2023-02-15T11:36:21;96094.59;;;10.42;38.39
68179;BME280;54998;42.656;23.382;2023-02-15T11:38:52;96098.94;;;11.70;35.77
68179;BME280;54998;42.656;23.382;2023-02-15T11:41:25;96088.41;;;9.07;40.58
68179;BME280;54998;42.656;23.382;2023-02-15T11:46:37;96085.88;;;11.04;37.46
68179;BME280;54998;42.656;23.382;2023-02-15T11:49:12;96085.19;;;11.14;37.31
68179;BME280;54998;42.656;23.382;2023-02-15T11:51:45;96066.94;;;11.05;36.89
68179;BME280;54998;42.656;23.382;2023-02-15T11:54:11;96073.56;;;11.32;36.35
68179;BME280;54998;42.656;23.382;2023-02-15T11:56:37;96069.66;;;10.44;37.82
68179;BME280;54998;42.656;23.382;2023-02-15T11:59:12;96063.38;;;8.85;41.47
68179;BME280;54998;42.656;23.382;2023-02-15T12:01:46;96065.25;;;7.73;43.56
68179;BME280;54998;42.656;23.382;2023-02-15T12:04:23;96057.22;;;8.88;41.17
68179;BME280;54998;42.656;23.382;2023-02-15T12:07:03;96054.41;;;9.43;40.13
68179;BME280;54998;42.656;23.382;2023-02-15T12:09:49;96054.91;;;10.59;37.59
68179;BME280;54998;42.656;23.382;2023-02-15T12:14:53;96054.81;;;9.24;40.11
68179;BME280;54998;42.656;23.382;2023-02-15T12:17:22;96054.47;;;7.82;42.53
68179;BME280;54998;42.656;23.382;2023-02-15T12:19:48;96051.22;;;6.78;45.68
68179;BME280;54998;42.656;23.382;2023-02-15T12:22:32;96049.34;;;5.72;48.42
68179;BME280;54998;42.656;23.382;2023-02-15T12:25:00;96040.00;;;5.88;48.82
68179;BME280;54998;42.656;23.382;2023-02-15T12:27:34;96039.41;;;5.83;48.89
68179;BME280;54998;42.656;23.382;2023-02-15T12:30:19;96048.47;;;5.89;48.75
68179;BME280;54998;42.656;23.382;2023-02-15T12:33:26;96047.53;;;6.07;48.47
68179;BME280;54998;42.656;23.382;2023-02-15T12:36:17;96038.06;;;6.40;47.57
68179;BME280;54998;42.656;23.382;2023-02-15T12:38:43;96039.84;;;5.91;48.71
68179;BME280;54998;42.656;23.382;2023-02-15T12:41:36;96033.81;;;5.61;49.83
68179;BME280;54998;42.656;23.382;2023-02-15T13:13:27;96011.06;;;5.73;49.39
68179;BME280;54998;42.656;23.382;2023-02-15T13:15:58;96008.06;;;6.59;47.62
68179;BME280;54998;42.656;23.382;2023-02-15T13:18:34;95994.31;;;7.06;46.58
68179;BME280;54998;42.656;23.382;2023-02-15T13:21:09;95999.00;;;6.55;46.96
68179;BME280;54998;42.656;23.382;2023-02-15T13:23:37;95991.28;;;7.57;45.16
68179;BME280;54998;42.656;23.382;2023-02-15T13:26:11;96006.41;;;8.01;43.96
68179;BME280;54998;42.656;23.382;2023-02-15T13:28:44;96002.66;;;9.00;41.70
68179;BME280;54998;42.656;23.382;2023-02-15T13:31:17;95993.41;;;8.84;41.84
68179;BME280;54998;42.656;23.382;2023-02-15T13:34:10;96008.50;;;7.68;44.08
68179;BME280;54998;42.656;23.382;2023-02-15T13:48:21;96008.25;;;5.46;50.52
68179;BME280;54998;42.656;23.382;2023-02-15T13:51:05;96011.97;;;5.56;50.65
68179;BME280;54998;42.656;23.382;2023-02-15T13:56:33;96026.38;;;5.58;50.54
68179;BME280;54998;42.656;23.382;2023-02-15T14:01:45;96023.47;;;5.48;50.64
68179;BME280;54998;42.656;23.382;2023-02-15T14:10:02;96029.41;;;5.15;52.50
68179;BME280;54998;42.656;23.382;2023-02-15T14:18:07;96040.13;;;5.04;53.19
68179;BME280;54998;42.656;23.382;2023-02-15T14:21:04;96050.47;;;5.01;52.93
68179;BME280;54998;42.656;23.382;2023-02-15T14:24:18;96043.66;;;4.84;53.88
68179;BME280;54998;42.656;23.382;2023-02-15T14:26:52;96055.22;;;4.90;53.68
68179;BME280;54998;42.656;23.382;2023-02-15T14:29:42;96038.16;;;5.09;52.95
68179;BME280;54998;42.656;23.382;2023-02-15T14:32:39;96052.31;;;4.98;53.07
68179;BME280;54998;42.656;23.382;2023-02-15T14:35:18;96052.94;;;4.68;54.34
68179;BME280;54998;42.656;23.382;2023-02-15T14:38:32;96042.31;;;4.77;53.79
68179;BME280;54998;42.656;23.382;2023-02-15T14:41:12;96055.91;;;4.76;54.07
68179;BME280;54998;42.656;23.382;2023-02-15T14:49:21;96048.00;;;4.47;55.11
68179;BME280;54998;42.656;23.382;2023-02-15T15:02:19;96051.66;;;4.05;56.80
68179;BME280;54998;42.656;23.382;2023-02-15T15:07:23;96048.97;;;4.08;56.28
68179;BME280;54998;42.656;23.382;2023-02-15T15:12:42;96053.44;;;4.03;56.47
68179;BME280;54998;42.656;23.382;2023-02-15T15:15:13;96049.53;;;3.96;56.91
68179;BME280;54998;42.656;23.382;2023-02-15T15:31:24;96061.81;;;3.48;57.88
68179;BME280;54998;42.656;23.382;2023-02-15T15:45:57;96076.00;;;3.34;58.66
68179;BME280;54998;42.656;23.382;2023-02-15T15:48:33;96066.75;;;3.12;59.12
68179;BME280;54998;42.656;23.382;2023-02-15T15:51:03;96069.13;;;3.17;59.08
68179;BME280;54998;42.656;23.382;2023-02-15T15:53:35;96072.88;;;3.08;58.88
68179;BME280;54998;42.656;23.382;2023-02-15T15:58:36;96073.69;;;2.88;59.79
68179;BME280;54998;42.656;23.382;2023-02-15T16:01:08;96077.94;;;2.87;60.12
68179;BME280;54998;42.656;23.382;2023-02-15T16:03:36;96066.34;;;2.82;60.39
68179;BME280;54998;42.656;23.382;2023-02-15T16:06:02;96080.97;;;2.75;60.54
68179;BME280;54998;42.656;23.382;2023-02-15T16:08:33;96074.13;;;2.77;60.81
68179;BME280;54998;42.656;23.382;2023-02-15T16:11:15;96083.69;;;2.71;60.92
68179;BME280;54998;42.656;23.382;2023-02-15T16:13:42;96080.00;;;2.57;61.25
68179;BME280;54998;42.656;23.382;2023-02-15T16:16:11;96079.06;;;2.60;61.57
68179;BME280;54998;42.656;23.382;2023-02-15T16:18:38;96079.00;;;2.61;61.72
68179;BME280;54998;42.656;23.382;2023-02-15T16:21:22;96081.00;;;2.53;62.15
68179;BME280;54998;42.656;23.382;2023-02-15T16:24:03;96084.75;;;2.44;62.72
68179;BME280;54998;42.656;23.382;2023-02-15T16:29:18;96082.88;;;2.50;62.38
68179;BME280;54998;42.656;23.382;2023-02-15T16:31:57;96088.03;;;2.46;62.55
68179;BME280;54998;42.656;23.382;2023-02-15T16:34:23;96091.75;;;2.38;63.02
68179;BME280;54998;42.656;23.382;2023-02-15T16:36:48;96092.19;;;2.27;63.16
68179;BME280;54998;42.656;23.382;2023-02-15T16:39:18;96089.69;;;2.25;63.70
68179;BME280;54998;42.656;23.382;2023-02-15T16:41:44;96091.13;;;2.33;63.13
68179;BME280;54998;42.656;23.382;2023-02-15T16:44:20;96099.78;;;2.27;63.19
68179;BME280;54998;42.656;23.382;2023-02-15T16:46:51;96093.94;;;2.25;63.65
68179;BME280;54998;42.656;23.382;2023-02-15T16:49:21;96091.50;;;2.23;63.42
68179;BME280;54998;42.656;23.382;2023-02-15T16:52:00;96096.00;;;2.15;63.64
68179;BME280;54998;42.656;23.382;2023-02-15T16:54:27;96092.66;;;2.15;63.70
68179;BME280;54998;42.656;23.382;2023-02-15T16:56:53;96093.72;;;2.09;64.09
68179;BME280;54998;42.656;23.382;2023-02-15T16:59:35;96083.81;;;2.03;64.17
68179;BME280;54998;42.656;23.382;2023-02-15T17:02:06;96094.13;;;1.98;64.47
68179;BME280;54998;42.656;23.382;2023-02-15T17:04:37;96100.00;;;1.99;64.28
68179;BME280;54998;42.656;23.382;2023-02-15T17:07:17;96093.94;;;2.03;64.32
68179;BME280;54998;42.656;23.382;2023-02-15T17:09:53;96099.13;;;2.00;64.18
68179;BME280;54998;42.656;23.382;2023-02-15T17:12:45;96087.69;;;1.90;64.41
68179;BME280;54998;42.656;23.382;2023-02-15T17:15:29;96091.44;;;1.79;64.75
68179;BME280;54998;42.656;23.382;2023-02-15T17:18:02;96093.09;;;1.80;64.72
68179;BME280;54998;42.656;23.382;2023-02-15T17:20:29;96091.22;;;1.85;64.73
68179;BME280;54998;42.656;23.382;2023-02-15T17:22:55;96090.84;;;1.73;65.17